メインページ
METAR-TAF:

METAR-TAF

空港 :

バッファロー・ナイアガラ国際空港

バッファロー, ニューヨーク, アメリカ合衆国

緯度: 42-56-27N, 経度: 078-44-09W, 海抜: 220m

現時点の気象観測

当レポートは47分前の00:54(UTC)に作成
西の風 9kt
気温 0°C
湿度 64%
気圧 1018 hPa
視程: 16.1km
高度2800ftの雲はほとんどない
高度4100ftの千切れ雲あり

METAR: KBUF 060054Z 26009KT 10SM FEW028 BKN041 00/M06 A3006 RMK AO2 SLP189 T00001056 $

時間: 20:41 (01:41 UTC)

予報

当レポートは2時間8分前の23:33(UTC)に作成
予報は06日の 00時(UTC)から 06日の 24時(UTC)まで有効
西の風 10kt
視程: 10km
高度4500ftの千切れ雲あり
06日の 0800時(UTC)から
変向風 3kt
視程: 3.2km
高度2500ftの千切れ雲あり
06日の 1500時(UTC)から
の風 kt
視程: 3.2km
高度700ftの曇り
小雪
06日の 1700時(UTC)から
北/北西の風 7kt
視程: 6.4km
高度1200ftの曇り
小雪
06日の 2000時(UTC)から
北西の風 8kt
視程: 9.7km
高度1500ftの千切れ雲あり
06日の 2300時(UTC)から
西の風 6kt
視程: 10km
高度2500ftの千切れ雲あり

TAF: KBUF 052333Z 0600/0624 27010KT P6SM BKN045 FM060800 VRB03KT 2SM BR BKN025 FM061500 00000KT 2SM -SN OVC007 FM061700 34007KT 4SM -SN OVC012 FM062000 31008KT 6SM BR BKN015 FM062300 27006KT P6SM BKN025

4,000以上の空港の気象観測と天気予報(METAR報とTAF報)

利用可能な観測所は地図上に黄色い丸と赤い丸で示す。

丸の上にカーソルを重ねると観測所名を参照できる。

次にクリックすると気象観測と天気予報を参照できる。

マップの切り替え:黒色「×」印の緑ボタンをクリックして拡大、「-」印の緑ボタンをクリックして縮小、緑色の三角印をクリックして隣りの地図に切り替え


METAR-TAF: